createdAt,value
2023-12-23T00:02:03.760Z,63.07
2023-12-23T00:04:32.326Z,82.53
2023-12-23T00:07:00.647Z,73.07
2023-12-23T00:09:30.629Z,66.57
2023-12-23T00:11:58.989Z,59.00
2023-12-23T00:14:27.502Z,70.53
2023-12-23T00:16:55.840Z,69.60
2023-12-23T00:19:24.581Z,77.27
2023-12-23T00:21:52.962Z,69.23
2023-12-23T00:24:21.476Z,66.27
2023-12-23T00:26:51.176Z,63.67
2023-12-23T00:29:19.735Z,68.33
2023-12-23T00:31:48.067Z,74.17
2023-12-23T00:34:16.728Z,71.73
2023-12-23T00:36:45.111Z,72.07
2023-12-23T00:39:14.058Z,71.77
2023-12-23T00:41:42.837Z,73.03
2023-12-23T00:44:12.892Z,74.20
2023-12-23T00:46:41.292Z,72.57
2023-12-23T00:49:10.256Z,75.47
2023-12-23T00:51:39.328Z,73.17
2023-12-23T00:54:08.087Z,69.40
2023-12-23T00:56:36.509Z,70.97
2023-12-23T00:59:05.199Z,73.90
2023-12-23T01:01:34.917Z,73.93
2023-12-23T01:04:03.842Z,72.50
2023-12-23T01:06:32.142Z,74.77
2023-12-23T01:09:00.834Z,71.57
2023-12-23T01:11:29.277Z,72.03
2023-12-23T01:13:57.932Z,74.80
2023-12-23T01:16:26.963Z,74.23
2023-12-23T01:18:56.986Z,74.43
2023-12-23T01:21:25.358Z,75.83
2023-12-23T01:23:53.859Z,75.00
2023-12-23T01:26:23.116Z,73.73
2023-12-23T01:28:51.723Z,71.97
2023-12-23T01:31:22.088Z,73.33
2023-12-23T01:33:50.924Z,76.03
2023-12-23T01:36:20.731Z,75.87
2023-12-23T01:38:49.357Z,75.90
2023-12-23T01:41:17.717Z,72.97
2023-12-23T01:43:47.236Z,73.87
2023-12-23T01:46:15.588Z,75.70
2023-12-23T01:48:46.600Z,75.17
2023-12-23T01:51:16.839Z,74.60
2023-12-23T01:53:47.322Z,73.67
2023-12-23T01:56:17.540Z,73.70
2023-12-23T01:58:46.206Z,76.10
2023-12-23T02:01:15.602Z,73.87
2023-12-23T02:03:44.280Z,74.80
2023-12-23T02:06:12.678Z,71.17
2023-12-23T02:08:42.179Z,74.17
2023-12-23T02:11:20.334Z,74.90
2023-12-23T02:14:00.425Z,73.90
2023-12-23T02:16:29.693Z,74.33
2023-12-23T02:18:58.292Z,70.40
2023-12-23T02:21:27.983Z,77.03
2023-12-23T02:23:56.630Z,75.30
2023-12-23T02:26:28.343Z,75.37
2023-12-23T02:28:58.021Z,76.33
2023-12-23T02:31:27.376Z,74.50
2023-12-23T02:33:56.594Z,76.93
2023-12-23T02:36:25.027Z,78.73
2023-12-23T02:38:54.947Z,76.30
2023-12-23T02:41:23.393Z,75.67
2023-12-23T02:43:52.022Z,76.70
2023-12-23T02:46:20.557Z,74.73
2023-12-23T02:48:49.204Z,72.83
2023-12-23T02:51:17.601Z,74.47
2023-12-23T02:53:46.176Z,74.90
2023-12-23T02:56:15.823Z,74.73
2023-12-23T02:58:44.570Z,74.13
2023-12-23T03:01:14.199Z,71.03
2023-12-23T03:03:42.999Z,69.83
2023-12-23T03:06:14.729Z,74.03
2023-12-23T03:08:44.049Z,74.23
2023-12-23T03:11:12.527Z,78.63
2023-12-23T03:13:42.601Z,75.90
2023-12-23T03:16:17.830Z,72.10
2023-12-23T03:18:46.909Z,70.13
2023-12-23T03:21:15.429Z,64.43
2023-12-23T03:23:44.095Z,71.83
2023-12-23T03:26:12.499Z,68.47
2023-12-23T03:28:42.513Z,64.07
2023-12-23T03:31:10.905Z,64.47
2023-12-23T03:33:41.468Z,69.37
2023-12-23T03:36:10.423Z,70.03
2023-12-23T03:38:39.058Z,65.27
2023-12-23T03:41:07.445Z,67.30
2023-12-23T03:43:36.168Z,66.83
2023-12-23T03:46:06.345Z,67.03
2023-12-23T03:48:35.203Z,65.87
2023-12-23T03:51:03.486Z,61.23
2023-12-23T03:53:32.090Z,61.10
2023-12-23T03:56:00.567Z,63.03
2023-12-23T03:58:30.598Z,64.63
2023-12-23T04:00:59.053Z,62.37
2023-12-23T04:03:29.069Z,63.87
2023-12-23T04:05:57.582Z,61.43
2023-12-23T04:08:26.280Z,59.77
2023-12-23T04:10:54.697Z,60.47
2023-12-23T04:13:23.442Z,62.83
2023-12-23T04:15:51.822Z,59.97
2023-12-23T04:18:20.567Z,56.03
2023-12-23T04:20:50.365Z,58.77
2023-12-23T04:23:18.954Z,61.90
2023-12-23T04:25:47.596Z,62.00
2023-12-23T04:28:16.956Z,55.37
2023-12-23T04:30:45.476Z,57.30
2023-12-23T04:33:14.249Z,60.67
2023-12-23T04:35:44.070Z,58.33
2023-12-23T04:38:15.406Z,61.63
2023-12-23T04:40:43.839Z,60.67
2023-12-23T04:43:12.454Z,61.53
2023-12-23T04:45:41.020Z,56.27
2023-12-23T04:48:09.872Z,58.40
2023-12-23T04:50:38.434Z,60.70
2023-12-23T04:53:07.344Z,58.30
2023-12-23T04:55:37.087Z,54.93
2023-12-23T04:58:06.036Z,62.40
2023-12-23T05:00:34.505Z,57.13
2023-12-23T05:03:03.502Z,60.50
2023-12-23T05:05:32.218Z,57.33
2023-12-23T05:08:01.005Z,62.40
2023-12-23T05:10:29.347Z,62.77
2023-12-23T05:12:59.305Z,61.47
2023-12-23T05:15:27.627Z,55.63
2023-12-23T05:17:56.290Z,53.17
2023-12-23T05:20:24.703Z,54.97
2023-12-23T05:22:53.999Z,56.13
2023-12-23T05:25:22.623Z,58.10
2023-12-23T05:27:51.209Z,59.67
2023-12-23T05:30:21.061Z,56.97
2023-12-23T05:32:49.918Z,62.20
2023-12-23T05:35:18.695Z,57.00
2023-12-23T05:37:47.347Z,55.53
2023-12-23T05:40:15.855Z,55.37
2023-12-23T05:42:44.513Z,59.20
2023-12-23T05:45:12.999Z,60.50
2023-12-23T05:47:44.256Z,56.97
2023-12-23T05:50:12.818Z,52.77
2023-12-23T05:52:41.477Z,51.10
2023-12-23T05:55:10.499Z,55.87
2023-12-23T05:57:39.109Z,57.97
2023-12-23T06:00:11.117Z,53.80
2023-12-23T06:02:42.561Z,54.63
2023-12-23T06:05:10.920Z,52.97
2023-12-23T06:07:39.608Z,53.17
2023-12-23T06:10:09.263Z,51.77
2023-12-23T06:12:37.894Z,55.23
2023-12-23T06:15:07.154Z,54.10
2023-12-23T06:17:35.830Z,60.03
2023-12-23T06:20:06.393Z,59.00
2023-12-23T06:22:35.065Z,57.23
2023-12-23T06:25:04.362Z,57.47
2023-12-23T06:27:33.115Z,55.73
2023-12-23T06:30:01.408Z,57.67
2023-12-23T06:32:30.329Z,58.27
2023-12-23T06:34:58.776Z,56.93
2023-12-23T06:37:28.725Z,59.83
2023-12-23T06:39:57.181Z,57.17
2023-12-23T06:42:25.751Z,56.57
2023-12-23T06:44:54.207Z,54.70
2023-12-23T06:47:22.853Z,57.57
2023-12-23T06:49:51.340Z,55.60
2023-12-23T06:52:19.943Z,55.30
2023-12-23T06:54:49.788Z,58.60
2023-12-23T06:57:18.354Z,58.90
2023-12-23T06:59:47.279Z,55.53
2023-12-23T07:02:16.378Z,60.97
2023-12-23T07:04:45.062Z,61.73
2023-12-23T07:07:13.650Z,58.57
2023-12-23T07:09:41.948Z,59.33
2023-12-23T07:12:11.932Z,61.77
2023-12-23T07:14:40.749Z,62.23
2023-12-23T07:17:09.405Z,60.63
2023-12-23T07:19:38.566Z,60.00
2023-12-23T07:22:07.752Z,60.87
2023-12-23T07:24:36.074Z,57.57
2023-12-23T07:27:05.615Z,70.30
2023-12-23T07:29:35.396Z,72.43
2023-12-23T07:32:04.006Z,70.23
2023-12-23T07:34:32.425Z,69.07
2023-12-23T07:37:01.254Z,62.00
2023-12-23T07:39:29.663Z,61.13
2023-12-23T07:41:58.933Z,56.73
2023-12-23T07:44:27.255Z,67.30
2023-12-23T07:46:58.319Z,68.20
2023-12-23T07:49:27.054Z,64.80
2023-12-23T07:51:55.942Z,65.33
2023-12-23T07:54:24.671Z,64.47
2023-12-23T07:56:53.604Z,69.80
2023-12-23T07:59:22.055Z,72.33
2023-12-23T08:01:50.797Z,71.40
2023-12-23T08:04:20.491Z,74.60
2023-12-23T08:06:49.522Z,69.03
2023-12-23T08:09:17.857Z,62.33
2023-12-23T08:11:46.458Z,113.97
2023-12-23T08:28:19.277Z,65.27
2023-12-23T08:30:48.380Z,95.67
2023-12-23T08:33:16.758Z,11.40
2023-12-23T08:35:46.055Z,5.47
2023-12-23T08:38:14.497Z,4.23
2023-12-23T08:40:44.596Z,3.67
2023-12-23T08:43:13.503Z,2.93
2023-12-23T08:45:43.863Z,3.23
2023-12-23T08:48:12.333Z,3.20
2023-12-23T08:50:40.943Z,3.17
2023-12-23T08:53:09.390Z,3.40
2023-12-23T08:55:38.287Z,2.97
2023-12-23T08:58:06.732Z,3.67
2023-12-23T09:00:36.805Z,3.47
2023-12-23T09:03:06.869Z,2.67
2023-12-23T09:05:35.631Z,3.13
2023-12-23T09:08:03.979Z,3.13
2023-12-23T09:10:32.669Z,4.00
2023-12-23T09:13:01.182Z,3.77
2023-12-23T09:15:29.785Z,2.47
2023-12-23T09:17:58.446Z,3.17
2023-12-23T09:20:30.097Z,2.30
2023-12-23T09:22:58.466Z,2.80
2023-12-23T09:25:27.030Z,3.00
2023-12-23T09:27:55.315Z,3.37
2023-12-23T09:30:24.190Z,3.07
2023-12-23T09:32:52.553Z,3.40
2023-12-23T09:35:21.209Z,3.17
2023-12-23T09:37:51.688Z,3.13
2023-12-23T09:40:20.575Z,3.53
2023-12-23T09:42:49.113Z,3.53
2023-12-23T09:45:18.893Z,3.77
2023-12-23T09:47:47.373Z,3.20
2023-12-23T09:50:17.389Z,2.93
2023-12-23T09:52:48.090Z,3.83
2023-12-23T09:55:21.532Z,3.53
2023-12-23T09:57:59.218Z,3.53
2023-12-23T10:00:27.829Z,2.90
2023-12-23T10:02:56.246Z,3.67
2023-12-23T10:05:27.908Z,3.17
2023-12-23T10:07:58.675Z,3.30
2023-12-23T10:10:29.488Z,3.40
2023-12-23T10:12:57.920Z,4.13
2023-12-23T10:15:26.706Z,4.23
2023-12-23T10:17:55.439Z,3.17
2023-12-23T10:20:24.225Z,3.20
2023-12-23T10:22:52.861Z,4.10
2023-12-23T10:25:21.903Z,3.00
2023-12-23T10:27:55.649Z,4.63
2023-12-23T10:30:26.433Z,3.07
2023-12-23T10:32:59.165Z,2.90
2023-12-23T10:35:29.456Z,4.13
2023-12-23T10:38:00.932Z,4.07
2023-12-23T10:40:31.198Z,3.57
2023-12-23T10:43:03.193Z,2.90
2023-12-23T10:45:36.440Z,3.13
2023-12-23T10:48:07.901Z,3.57
2023-12-23T10:50:37.787Z,3.20
2023-12-23T10:53:10.005Z,3.00
2023-12-23T10:55:40.760Z,3.37
2023-12-23T10:58:11.483Z,3.63
2023-12-23T11:00:40.177Z,3.77
2023-12-23T11:03:10.526Z,3.43
2023-12-23T11:05:41.478Z,3.67
2023-12-23T11:08:17.658Z,3.40
2023-12-23T11:10:47.747Z,2.60
2023-12-23T11:13:25.185Z,2.70
2023-12-23T11:15:56.911Z,2.97
2023-12-23T11:18:25.367Z,3.20
2023-12-23T11:20:54.429Z,3.27
2023-12-23T11:23:36.518Z,3.97
2023-12-23T11:26:06.375Z,3.77
2023-12-23T11:28:38.638Z,4.07
2023-12-23T11:31:07.619Z,3.27
2023-12-23T11:33:37.781Z,2.40
2023-12-23T11:36:07.839Z,3.60
2023-12-23T11:38:51.497Z,3.57
2023-12-23T11:41:20.904Z,2.80
2023-12-23T11:43:52.069Z,3.77
2023-12-23T11:46:24.446Z,4.00
2023-12-23T11:48:52.987Z,3.40
2023-12-23T11:51:21.625Z,3.63
2023-12-23T11:53:50.491Z,3.50
2023-12-23T11:56:19.219Z,3.93
2023-12-23T11:58:47.785Z,4.27
2023-12-23T12:01:20.030Z,3.70
2023-12-23T12:03:49.470Z,3.93
2023-12-23T12:06:18.525Z,3.10
2023-12-23T12:08:48.049Z,3.90
2023-12-23T12:11:17.167Z,3.63
2023-12-23T12:13:47.590Z,4.00
2023-12-23T12:16:17.726Z,3.43
2023-12-23T12:18:48.119Z,3.97
2023-12-23T12:21:16.786Z,4.03
2023-12-23T12:23:45.278Z,3.07
2023-12-23T12:26:13.962Z,3.43
2023-12-23T12:28:44.788Z,4.63
2023-12-23T12:31:16.880Z,4.00
2023-12-23T12:33:45.896Z,3.43
2023-12-23T12:36:17.962Z,4.40
2023-12-23T12:38:47.036Z,2.80
2023-12-23T12:41:15.921Z,3.80
2023-12-23T12:43:45.446Z,3.33
2023-12-23T12:46:16.729Z,3.73
2023-12-23T12:48:47.768Z,3.20
2023-12-23T12:51:18.227Z,3.80
2023-12-23T12:53:48.330Z,3.97
2023-12-23T12:56:22.160Z,3.37
2023-12-23T12:58:51.932Z,3.43
2023-12-23T13:01:21.211Z,2.80
2023-12-23T13:03:51.321Z,3.67
2023-12-23T13:06:20.236Z,3.30
2023-12-23T13:08:48.658Z,3.37
2023-12-23T13:11:17.334Z,3.40
2023-12-23T13:13:46.373Z,3.33
2023-12-23T13:16:15.401Z,3.30
2023-12-23T13:18:52.598Z,3.87
2023-12-23T13:21:27.415Z,3.40
2023-12-23T13:23:55.792Z,4.37
2023-12-23T13:26:24.520Z,4.17
2023-12-23T13:28:53.241Z,3.83
2023-12-23T13:31:22.240Z,4.00
2023-12-23T13:33:50.844Z,4.37
2023-12-23T13:36:19.477Z,3.97
2023-12-23T13:38:49.212Z,4.20
2023-12-23T13:41:25.326Z,3.97
2023-12-23T13:43:53.825Z,3.83
2023-12-23T13:46:22.494Z,3.67
2023-12-23T13:48:50.943Z,4.17
2023-12-23T13:51:20.902Z,4.63
2023-12-23T13:53:50.716Z,3.77
2023-12-23T13:56:19.709Z,3.67
2023-12-23T13:58:48.236Z,4.70
2023-12-23T14:01:17.497Z,3.53
2023-12-23T14:03:46.059Z,3.77
2023-12-23T14:06:15.161Z,3.50
2023-12-23T14:08:52.532Z,3.63
2023-12-23T14:11:26.132Z,3.70
2023-12-23T14:13:54.541Z,3.63
2023-12-23T14:16:23.227Z,4.23
2023-12-23T14:18:51.565Z,3.63
2023-12-23T14:21:20.219Z,3.90
2023-12-23T14:23:48.604Z,4.30
2023-12-23T14:26:17.424Z,4.23
2023-12-23T14:28:47.106Z,4.50
2023-12-23T14:31:15.716Z,3.60
2023-12-23T14:33:44.425Z,4.87
2023-12-23T14:36:17.569Z,4.47
2023-12-23T14:38:46.021Z,3.60
2023-12-23T14:41:15.007Z,3.80
2023-12-23T14:43:48.535Z,3.63
2023-12-23T14:46:19.060Z,4.17
2023-12-23T14:48:47.863Z,3.80
2023-12-23T14:51:16.748Z,3.87
2023-12-23T14:53:48.757Z,4.23
2023-12-23T14:56:17.617Z,3.70
2023-12-23T14:58:47.583Z,3.90
2023-12-23T15:01:16.244Z,4.13
2023-12-23T15:03:44.815Z,4.60
2023-12-23T15:06:13.642Z,3.43
2023-12-23T15:08:42.058Z,3.70
2023-12-23T15:11:11.295Z,3.97
2023-12-23T15:13:41.310Z,4.10
2023-12-23T15:16:13.127Z,3.67
2023-12-23T15:18:41.738Z,3.63
2023-12-23T15:21:10.414Z,4.00
2023-12-23T15:23:41.668Z,4.13
2023-12-23T15:26:10.670Z,3.87
2023-12-23T15:28:39.354Z,4.40
2023-12-23T15:31:08.115Z,3.77
2023-12-23T15:33:37.882Z,3.30
2023-12-23T15:36:08.184Z,3.60
2023-12-23T15:38:36.505Z,3.77
2023-12-23T15:41:05.495Z,3.93
2023-12-23T15:43:33.814Z,4.03
2023-12-23T15:46:02.521Z,4.10
2023-12-23T15:48:30.942Z,3.90
2023-12-23T15:51:01.097Z,2.97
2023-12-23T15:53:29.529Z,4.40
2023-12-23T15:55:58.149Z,3.97
2023-12-23T15:58:26.629Z,4.20
2023-12-23T16:00:55.182Z,3.37
2023-12-23T16:03:23.537Z,3.73
2023-12-23T16:05:52.290Z,3.20
2023-12-23T16:08:22.038Z,3.70
2023-12-23T16:10:50.779Z,3.40
2023-12-23T16:13:19.078Z,3.97
2023-12-23T16:15:47.745Z,3.67
2023-12-23T16:18:16.149Z,3.87
2023-12-23T16:20:44.842Z,4.60
2023-12-23T16:23:13.195Z,3.97
2023-12-23T16:25:43.151Z,3.70
2023-12-23T16:28:11.502Z,3.87
2023-12-23T16:30:40.157Z,3.43
2023-12-23T16:33:08.512Z,3.40
2023-12-23T16:35:37.078Z,4.17
2023-12-23T16:38:05.859Z,3.60
2023-12-23T16:40:34.444Z,3.70
2023-12-23T16:43:04.266Z,4.73
2023-12-23T16:45:32.828Z,4.50
2023-12-23T16:48:01.193Z,3.97
2023-12-23T16:50:30.013Z,4.73
2023-12-23T16:52:58.353Z,4.60
2023-12-23T16:55:27.419Z,4.00
2023-12-23T16:57:56.225Z,4.80
2023-12-23T17:00:26.261Z,4.20
2023-12-23T17:02:54.898Z,4.20
2023-12-23T17:05:23.931Z,4.67
2023-12-23T17:07:52.387Z,4.53
2023-12-23T17:10:20.932Z,4.20
2023-12-23T17:12:49.584Z,4.77
2023-12-23T17:15:18.271Z,4.57
2023-12-23T17:17:48.112Z,3.63
2023-12-23T17:20:17.211Z,4.27
2023-12-23T17:22:45.554Z,4.57
2023-12-23T17:25:14.261Z,5.00
2023-12-23T17:27:42.561Z,3.87
2023-12-23T17:30:11.507Z,4.97
2023-12-23T17:32:40.169Z,4.20
2023-12-23T17:35:11.570Z,4.87
2023-12-23T17:37:39.977Z,5.23
2023-12-23T17:40:09.882Z,4.40
2023-12-23T17:42:38.141Z,4.60
2023-12-23T17:45:07.562Z,4.80
2023-12-23T17:47:36.639Z,4.07
2023-12-23T17:50:06.833Z,4.33
2023-12-23T17:52:36.587Z,4.87
2023-12-23T17:55:05.814Z,4.67
2023-12-23T17:57:34.211Z,4.17
2023-12-23T18:00:03.290Z,4.40
2023-12-23T18:02:32.990Z,4.70
2023-12-23T18:05:01.853Z,4.10
2023-12-23T18:07:30.192Z,3.87
2023-12-23T18:10:00.324Z,3.47
2023-12-23T18:12:28.686Z,4.03
2023-12-23T18:14:58.502Z,4.17
2023-12-23T18:17:28.346Z,4.17
2023-12-23T18:19:57.020Z,4.47
2023-12-23T18:22:25.292Z,4.00
2023-12-23T18:24:54.219Z,3.97
2023-12-23T18:27:23.965Z,4.20
2023-12-23T18:29:52.890Z,4.10
2023-12-23T18:32:21.410Z,3.27
2023-12-23T18:34:50.370Z,3.87
2023-12-23T18:37:18.824Z,4.10
2023-12-23T18:39:47.453Z,3.87
2023-12-23T18:42:15.816Z,4.30
2023-12-23T18:44:45.695Z,4.10
2023-12-23T18:47:14.042Z,4.10
2023-12-23T18:49:42.648Z,4.30
2023-12-23T18:52:10.932Z,3.70
2023-12-23T18:54:39.469Z,4.63
2023-12-23T18:57:07.944Z,4.10
2023-12-23T18:59:36.564Z,4.00
2023-12-23T19:02:09.517Z,4.23
2023-12-23T19:04:38.336Z,3.53
2023-12-23T19:07:07.486Z,3.70
2023-12-23T19:09:36.897Z,4.57
2023-12-23T19:12:05.816Z,4.10
2023-12-23T19:14:34.170Z,4.07
2023-12-23T19:17:02.759Z,5.27
2023-12-23T19:19:32.580Z,4.57
2023-12-23T19:22:01.188Z,4.20
2023-12-23T19:24:30.083Z,4.73
2023-12-23T19:27:02.619Z,4.27
2023-12-23T19:29:31.254Z,4.37
2023-12-23T19:31:59.926Z,4.63
2023-12-23T19:34:28.329Z,4.40
2023-12-23T19:36:58.311Z,4.33
2023-12-23T19:39:26.649Z,4.90
2023-12-23T19:41:55.416Z,4.53
2023-12-23T19:44:25.423Z,4.80
2023-12-23T19:46:54.427Z,4.20
2023-12-23T19:49:22.833Z,4.60
2023-12-23T19:51:51.475Z,4.30
2023-12-23T19:54:23.794Z,4.47
2023-12-23T19:56:52.489Z,3.67
2023-12-23T19:59:20.939Z,4.33
2023-12-23T20:01:49.669Z,3.87
2023-12-23T20:04:18.874Z,3.93
2023-12-23T20:06:47.467Z,4.27
2023-12-23T20:09:16.352Z,4.63
2023-12-23T20:11:46.417Z,4.53
2023-12-23T20:14:14.769Z,3.70
2023-12-23T20:16:43.352Z,4.03
2023-12-23T20:19:13.698Z,4.87
2023-12-23T20:21:42.501Z,4.27
2023-12-23T20:24:11.529Z,4.50
2023-12-23T20:26:40.240Z,5.13
2023-12-23T20:29:09.904Z,5.40
2023-12-23T20:31:38.809Z,5.20
2023-12-23T20:34:08.214Z,3.90
2023-12-23T20:36:39.665Z,5.07
2023-12-23T20:39:08.696Z,4.90
2023-12-23T20:41:40.527Z,4.07
2023-12-23T20:44:13.752Z,4.80
2023-12-23T20:46:42.474Z,4.77
2023-12-23T20:49:11.751Z,3.40
2023-12-23T20:51:41.087Z,4.30
2023-12-23T20:54:09.532Z,4.57
2023-12-23T20:56:38.197Z,4.27
2023-12-23T20:59:07.725Z,4.53
2023-12-23T21:01:37.712Z,3.90
2023-12-23T21:04:11.939Z,3.83
2023-12-23T21:06:40.682Z,4.60
2023-12-23T21:09:11.384Z,3.93
2023-12-23T21:11:41.035Z,3.17
2023-12-23T21:14:09.735Z,4.13
2023-12-23T21:16:39.668Z,4.73
2023-12-23T21:19:08.123Z,4.30
2023-12-23T21:21:39.814Z,4.70
2023-12-23T21:24:09.001Z,4.73
2023-12-23T21:26:38.726Z,4.47
2023-12-23T21:29:08.069Z,3.50
2023-12-23T21:31:36.744Z,3.80
2023-12-23T21:34:06.509Z,3.73
2023-12-23T21:36:35.506Z,4.10
2023-12-23T21:39:03.963Z,4.40
2023-12-23T21:41:35.730Z,3.80
2023-12-23T21:44:08.157Z,4.30
2023-12-23T21:46:36.807Z,4.47
2023-12-23T21:49:11.483Z,3.20
2023-12-23T21:51:40.105Z,3.80
2023-12-23T21:54:08.508Z,4.37
2023-12-23T21:56:40.167Z,3.67
2023-12-23T21:59:08.770Z,4.37
2023-12-23T22:01:37.287Z,4.27
2023-12-23T22:04:07.367Z,3.63
2023-12-23T22:06:35.770Z,4.23
2023-12-23T22:09:04.446Z,4.23
2023-12-23T22:11:33.029Z,3.80
2023-12-23T22:14:01.721Z,3.90
2023-12-23T22:16:30.180Z,4.73
2023-12-23T22:18:58.856Z,4.37
2023-12-23T22:21:28.666Z,4.13
2023-12-23T22:23:57.688Z,3.97
2023-12-23T22:26:28.835Z,3.97
2023-12-23T22:28:57.586Z,4.50
2023-12-23T22:31:25.994Z,3.80
2023-12-23T22:33:54.888Z,4.10
2023-12-23T22:36:23.252Z,4.33
2023-12-23T22:38:53.308Z,4.03
2023-12-23T22:41:21.680Z,3.83
2023-12-23T22:43:50.577Z,3.80
2023-12-23T22:46:18.972Z,3.90
2023-12-23T22:48:47.644Z,3.97
2023-12-23T22:51:16.026Z,3.80
2023-12-23T22:53:44.679Z,3.53
2023-12-23T22:56:14.437Z,3.40
2023-12-23T22:58:43.005Z,2.70
2023-12-23T23:01:16.017Z,3.37
2023-12-23T23:03:44.837Z,3.50
2023-12-23T23:06:13.682Z,3.77
2023-12-23T23:08:42.365Z,3.57
2023-12-23T23:11:10.708Z,4.00
2023-12-23T23:13:40.755Z,4.33
2023-12-23T23:16:10.310Z,5.00
2023-12-23T23:18:42.105Z,3.83
2023-12-23T23:21:10.605Z,3.80
2023-12-23T23:23:39.333Z,4.53
2023-12-23T23:26:08.742Z,4.57
2023-12-23T23:28:37.351Z,4.23
2023-12-23T23:31:07.402Z,4.47
2023-12-23T23:33:36.165Z,4.00
2023-12-23T23:36:04.684Z,3.70
2023-12-23T23:38:33.698Z,4.03
2023-12-23T23:41:01.985Z,3.50
2023-12-23T23:43:30.616Z,3.77
2023-12-23T23:45:58.865Z,3.80
2023-12-23T23:48:28.820Z,3.90
2023-12-23T23:50:57.388Z,3.80
2023-12-23T23:53:26.025Z,4.00
2023-12-23T23:55:54.438Z,4.37
2023-12-23T23:58:22.977Z,4.50
